Time;durP1;ratioP1;P1;durP2;ratioP2;P2;SDS_P1;SDS_P2;PMS_P1;PMS_P2;Temp;Humidity;BMP_temperature;BMP_pressure;BME280_temperature;BME280_humidity;BME280_pressure;Samples;Min_cycle;Max_cycle;Signal;HPM_P1;HPM_P2
2022/09/11 00:00:17;;;;;;;1999.90;999.90;;;;;;;;;;5007593;28;21105;-74
2022/09/11 00:02:45;;;;;;;1999.90;999.90;;;;;;;;;;5009434;28;20424;-74
2022/09/11 00:05:12;;;;;;;1999.90;999.90;;;;;;;;;;5005437;28;20406;-74
2022/09/11 00:07:40;;;;;;;1999.90;999.90;;;;;;;;;;5004695;28;20424;-74
2022/09/11 00:10:09;;;;;;;1999.90;999.90;;;;;;;;;;5020124;28;20404;-73
2022/09/11 00:12:37;;;;;;;1999.90;999.90;;;;;;;;;;5011962;28;21228;-73
2022/09/11 00:15:07;;;;;;;1999.90;999.90;;;;;;;;;;5007613;28;20411;-74
2022/09/11 00:17:35;;;;;;;1999.90;999.90;;;;;;;;;;5015927;28;20452;-74
2022/09/11 00:20:02;;;;;;;1999.90;999.90;;;;;;;;;;5006454;28;20768;-73
2022/09/11 00:22:30;;;;;;;1999.90;999.90;;;;;;;;;;5007245;28;21092;-74
2022/09/11 00:24:58;;;;;;;1999.90;999.90;;;;;;;;;;5004738;28;20821;-74
2022/09/11 00:27:26;;;;;;;1999.90;999.90;;;;;;;;;;5010495;28;20414;-74
2022/09/11 00:29:54;;;;;;;1999.90;999.90;;;;;;;;;;5004861;28;20405;-72
2022/09/11 00:32:23;;;;;;;1999.90;999.90;;;;;;;;;;5006912;28;20496;-74
2022/09/11 00:34:51;;;;;;;1999.90;999.90;;;;;;;;;;5006089;28;20901;-74
2022/09/11 00:37:19;;;;;;;1999.90;999.90;;;;;;;;;;5007612;28;21690;-73
2022/09/11 00:39:48;;;;;;;1999.90;999.90;;;;;;;;;;5011105;28;20403;-75
2022/09/11 00:42:15;;;;;;;1999.90;999.90;;;;;;;;;;5006331;28;20965;-74
2022/09/11 00:44:59;;;;;;;1999.90;999.90;;;;;;;;;;5007947;28;20576;-74
2022/09/11 00:47:29;;;;;;;1999.90;999.90;;;;;;;;;;5007804;28;20905;-75
2022/09/11 00:50:01;;;;;;;1999.90;999.90;;;;;;;;;;5006366;28;21051;-74
2022/09/11 00:52:30;;;;;;;1999.90;999.90;;;;;;;;;;4994489;28;20808;-74
2022/09/11 00:55:00;;;;;;;1999.90;999.90;;;;;;;;;;5006716;28;20402;-74
2022/09/11 00:57:30;;;;;;;1999.90;999.90;;;;;;;;;;5004246;28;20418;-74
2022/09/11 00:59:59;;;;;;;1999.90;999.90;;;;;;;;;;5008166;28;20546;-74
2022/09/11 01:02:28;;;;;;;1999.90;999.90;;;;;;;;;;4988779;28;20857;-74
2022/09/11 01:04:57;;;;;;;1999.90;999.90;;;;;;;;;;5010576;28;20396;-74
2022/09/11 01:07:26;;;;;;;1999.90;999.90;;;;;;;;;;5001337;28;20412;-75
2022/09/11 01:09:55;;;;;;;1999.90;999.90;;;;;;;;;;5008717;28;20523;-73
2022/09/11 01:12:24;;;;;;;1999.90;999.90;;;;;;;;;;5005258;28;20418;-74
2022/09/11 01:14:57;;;;;;;1999.90;999.90;;;;;;;;;;5005246;28;20432;-74
2022/09/11 01:17:27;;;;;;;1999.90;999.90;;;;;;;;;;5007041;28;20503;-74
2022/09/11 01:20:28;;;;;;;1999.90;999.90;;;;;;;;;;5001403;28;20459;-75
2022/09/11 01:23:07;;;;;;;1999.90;999.90;;;;;;;;;;4939722;28;20425;-74
2022/09/11 01:25:46;;;;;;;1999.90;999.90;;;;;;;;;;4914883;28;20882;-75
2022/09/11 01:28:19;;;;;;;1999.90;999.90;;;;;;;;;;4972677;22;20421;-74
2022/09/11 01:30:50;;;;;;;1999.90;999.90;;;;;;;;;;5015425;28;20404;-74
2022/09/11 01:33:22;;;;;;;1999.90;999.90;;;;;;;;;;4977294;28;20482;-74
2022/09/11 01:35:52;;;;;;;1999.90;999.90;;;;;;;;;;4998775;28;20419;-74
2022/09/11 01:38:23;;;;;;;1999.90;999.90;;;;;;;;;;4998231;28;20424;-74
2022/09/11 01:40:54;;;;;;;1999.90;999.90;;;;;;;;;;5017960;28;20546;-74
2022/09/11 01:43:25;;;;;;;1999.90;999.90;;;;;;;;;;5016174;28;20830;-74
2022/09/11 01:45:56;;;;;;;1999.90;999.90;;;;;;;;;;5000365;28;20938;-74
2022/09/11 01:48:26;;;;;;;1999.90;999.90;;;;;;;;;;5001070;28;20416;-73
2022/09/11 01:50:56;;;;;;;1999.90;999.90;;;;;;;;;;5000612;28;20443;-73
2022/09/11 01:53:25;;;;;;;1999.90;999.90;;;;;;;;;;4981854;28;20387;-73
2022/09/11 01:55:56;;;;;;;1999.90;999.90;;;;;;;;;;5018227;28;20887;-74
2022/09/11 01:58:27;;;;;;;1999.90;999.90;;;;;;;;;;5016848;28;20431;-74
2022/09/11 02:00:59;;;;;;;1999.90;999.90;;;;;;;;;;5000486;28;20415;-74
2022/09/11 02:03:30;;;;;;;1999.90;999.90;;;;;;;;;;4995439;28;20419;-74
2022/09/11 02:06:01;;;;;;;1999.90;999.90;;;;;;;;;;4999649;28;20392;-74
2022/09/11 02:08:31;;;;;;;1999.90;999.90;;;;;;;;;;4985198;28;20498;-74
2022/09/11 02:11:03;;;;;;;1999.90;999.90;;;;;;;;;;5016285;28;20396;-74
2022/09/11 02:13:34;;;;;;;1999.90;999.90;;;;;;;;;;4978003;28;20407;-74
2022/09/11 02:16:05;;;;;;;1999.90;999.90;;;;;;;;;;4999892;28;20423;-75
2022/09/11 02:18:40;;;;;;;1999.90;999.90;;;;;;;;;;4976554;28;20487;-74
2022/09/11 02:21:07;;;;;;;1999.90;999.90;;;;;;;;;;5007033;28;20782;-74
2022/09/11 02:23:38;;;;;;;1999.90;999.90;;;;;;;;;;4980382;28;20396;-74
2022/09/11 02:26:08;;;;;;;1999.90;999.90;;;;;;;;;;4996853;28;20399;-74
2022/09/11 02:28:37;;;;;;;1999.90;999.90;;;;;;;;;;5005065;28;20834;-74
2022/09/11 02:31:06;;;;;;;1999.90;999.90;;;;;;;;;;4992886;28;20423;-75
2022/09/11 02:33:35;;;;;;;1999.90;999.90;;;;;;;;;;4993250;28;20447;-74
2022/09/11 02:36:10;;;;;;;1999.90;999.90;;;;;;;;;;5018006;28;20933;-74
2022/09/11 02:38:45;;;;;;;1999.90;999.90;;;;;;;;;;5002345;28;20431;-74
2022/09/11 02:41:16;;;;;;;1999.90;999.90;;;;;;;;;;5012489;28;20923;-74
2022/09/11 02:43:50;;;;;;;1999.90;999.90;;;;;;;;;;4999459;28;20455;-74
2022/09/11 02:46:33;;;;;;;1999.90;999.90;;;;;;;;;;4999654;28;20443;-75
2022/09/11 02:49:07;;;;;;;1999.90;999.90;;;;;;;;;;4979501;28;20470;-74
2022/09/11 02:51:38;;;;;;;1999.90;999.90;;;;;;;;;;4998157;28;20947;-75
2022/09/11 02:54:10;;;;;;;1999.90;999.90;;;;;;;;;;4982618;28;20952;-74
2022/09/11 02:56:41;;;;;;;1999.90;999.90;;;;;;;;;;4999630;28;20411;-74
2022/09/11 02:59:16;;;;;;;1999.90;999.90;;;;;;;;;;4998365;28;20412;-74
2022/09/11 03:01:46;;;;;;;1999.90;999.90;;;;;;;;;;5011685;28;21234;-74
2022/09/11 03:04:14;;;;;;;1999.90;999.90;;;;;;;;;;5016149;28;20459;-74
2022/09/11 03:06:42;;;;;;;1999.90;999.90;;;;;;;;;;4984116;28;20982;-74
2022/09/11 03:09:10;;;;;;;1999.90;999.90;;;;;;;;;;4998621;28;21372;-73
2022/09/11 03:11:38;;;;;;;1999.90;999.90;;;;;;;;;;4997492;28;20410;-73
2022/09/11 03:14:06;;;;;;;1999.90;999.90;;;;;;;;;;4998610;28;20499;-73
2022/09/11 03:16:38;;;;;;;1999.90;999.90;;;;;;;;;;4999143;28;20415;-73
2022/09/11 03:19:08;;;;;;;1999.90;999.90;;;;;;;;;;4982946;28;20392;-74
2022/09/11 03:21:37;;;;;;;1999.90;999.90;;;;;;;;;;4998131;28;20898;-74
2022/09/11 03:24:08;;;;;;;1999.90;999.90;;;;;;;;;;5001291;28;20412;-73
2022/09/11 03:26:37;;;;;;;1999.90;999.90;;;;;;;;;;4996114;28;20993;-74
2022/09/11 03:29:07;;;;;;;1999.90;999.90;;;;;;;;;;4995242;28;20423;-73
2022/09/11 03:31:35;;;;;;;1999.90;999.90;;;;;;;;;;5012938;28;20396;-73
2022/09/11 03:34:07;;;;;;;1999.90;999.90;;;;;;;;;;5013694;28;21531;-73
2022/09/11 03:36:35;;;;;;;1999.90;999.90;;;;;;;;;;4998897;28;20525;-73
2022/09/11 03:39:05;;;;;;;1999.90;999.90;;;;;;;;;;4998065;28;21277;-73
2022/09/11 03:41:32;;;;;;;1999.90;999.90;;;;;;;;;;4996306;28;20396;-73
2022/09/11 03:44:00;;;;;;;1999.90;999.90;;;;;;;;;;4999402;28;20407;-73
2022/09/11 03:46:29;;;;;;;1999.90;999.90;;;;;;;;;;5018327;28;20451;-73
2022/09/11 03:48:58;;;;;;;1999.90;999.90;;;;;;;;;;4985534;28;20531;-74
2022/09/11 03:51:27;;;;;;;1999.90;999.90;;;;;;;;;;4985984;28;20416;-73
2022/09/11 03:53:56;;;;;;;1999.90;999.90;;;;;;;;;;4986656;28;20917;-73
2022/09/11 03:56:23;;;;;;;1999.90;999.90;;;;;;;;;;5000458;28;20478;-73
2022/09/11 03:58:54;;;;;;;1999.90;999.90;;;;;;;;;;5001848;28;20861;-73
2022/09/11 04:01:23;;;;;;;1999.90;999.90;;;;;;;;;;5016733;28;20406;-73
2022/09/11 04:03:52;;;;;;;1999.90;999.90;;;;;;;;;;5001656;28;20427;-73
2022/09/11 04:06:31;;;;;;;1999.90;999.90;;;;;;;;;;4984566;28;20384;-73
2022/09/11 04:08:59;;;;;;;1999.90;999.90;;;;;;;;;;4986734;28;20785;-73
2022/09/11 04:11:27;;;;;;;1999.90;999.90;;;;;;;;;;5001028;28;20411;-74
2022/09/11 04:13:55;;;;;;;1999.90;999.90;;;;;;;;;;5002498;28;20415;-73
2022/09/11 04:16:26;;;;;;;1999.90;999.90;;;;;;;;;;4998894;28;20403;-73
2022/09/11 04:18:55;;;;;;;1999.90;999.90;;;;;;;;;;5017640;28;20396;-74
2022/09/11 04:21:24;;;;;;;1999.90;999.90;;;;;;;;;;4999200;28;20692;-73
2022/09/11 04:23:59;;;;;;;1999.90;999.90;;;;;;;;;;4999651;28;20498;-73
2022/09/11 04:26:29;;;;;;;1999.90;999.90;;;;;;;;;;4982625;28;20396;-73
2022/09/11 04:29:16;;;;;;;1999.90;999.90;;;;;;;;;;5014444;28;20908;-73
2022/09/11 04:31:45;;;;;;;1999.90;999.90;;;;;;;;;;4998970;28;20434;-73
2022/09/11 04:34:14;;;;;;;1999.90;999.90;;;;;;;;;;5017493;28;20573;-73
2022/09/11 04:36:42;;;;;;;1999.90;999.90;;;;;;;;;;4986636;28;20451;-73
2022/09/11 04:39:15;;;;;;;1999.90;999.90;;;;;;;;;;5009034;28;20392;-74
2022/09/11 04:41:44;;;;;;;1999.90;999.90;;;;;;;;;;5002185;28;20899;-73
2022/09/11 04:44:13;;;;;;;1999.90;999.90;;;;;;;;;;4985605;28;20432;-73
2022/09/11 04:46:44;;;;;;;1999.90;999.90;;;;;;;;;;4985029;28;20911;-73
2022/09/11 04:49:11;;;;;;;1999.90;999.90;;;;;;;;;;4981024;28;20993;-74
2022/09/11 04:51:40;;;;;;;1999.90;999.90;;;;;;;;;;5001680;28;20562;-74
2022/09/11 04:54:13;;;;;;;1999.90;999.90;;;;;;;;;;5002562;28;20882;-74
2022/09/11 04:56:42;;;;;;;1999.90;999.90;;;;;;;;;;5002271;28;20395;-73
2022/09/11 04:59:12;;;;;;;1999.90;999.90;;;;;;;;;;5002120;28;20450;-75
2022/09/11 05:01:42;;;;;;;1999.90;999.90;;;;;;;;;;5001199;28;20439;-75
2022/09/11 05:04:11;;;;;;;1999.90;999.90;;;;;;;;;;5015170;28;20415;-76
2022/09/11 05:06:41;;;;;;;1999.90;999.90;;;;;;;;;;4996088;28;20420;-75
2022/09/11 05:09:11;;;;;;;1999.90;999.90;;;;;;;;;;4990209;28;20404;-75
2022/09/11 05:11:39;;;;;;;1999.90;999.90;;;;;;;;;;5001903;28;21364;-75
2022/09/11 05:14:11;;;;;;;1999.90;999.90;;;;;;;;;;5019387;28;20418;-75
2022/09/11 05:16:42;;;;;;;1999.90;999.90;;;;;;;;;;5001744;28;20410;-75
2022/09/11 05:19:11;;;;;;;1999.90;999.90;;;;;;;;;;4998737;28;20399;-75
2022/09/11 05:21:40;;;;;;;1999.90;999.90;;;;;;;;;;4984948;28;21156;-75
2022/09/11 05:24:08;;;;;;;1999.90;999.90;;;;;;;;;;5001311;28;20491;-75
2022/09/11 05:26:36;;;;;;;1999.90;999.90;;;;;;;;;;4999393;28;20532;-74
2022/09/11 05:29:08;;;;;;;1999.90;999.90;;;;;;;;;;5013163;28;20440;-74
2022/09/11 05:31:43;;;;;;;1999.90;999.90;;;;;;;;;;5000805;28;20504;-75
2022/09/11 05:34:13;;;;;;;1999.90;999.90;;;;;;;;;;5016259;28;20423;-75
2022/09/11 05:36:41;;;;;;;1999.90;999.90;;;;;;;;;;4984351;28;20402;-74
2022/09/11 05:39:09;;;;;;;1999.90;999.90;;;;;;;;;;4999824;28;20920;-75
2022/09/11 05:41:39;;;;;;;1999.90;999.90;;;;;;;;;;5018789;28;21135;-75
2022/09/11 05:44:07;;;;;;;1999.90;999.90;;;;;;;;;;4985170;28;20477;-75
2022/09/11 05:46:37;;;;;;;1999.90;999.90;;;;;;;;;;4998954;28;20411;-74
2022/09/11 05:49:07;;;;;;;1999.90;999.90;;;;;;;;;;5001391;28;20423;-76
2022/09/11 05:51:36;;;;;;;1999.90;999.90;;;;;;;;;;5000372;28;20427;-75
2022/09/11 05:54:05;;;;;;;1999.90;999.90;;;;;;;;;;4984236;28;20419;-75
2022/09/11 05:56:34;;;;;;;1999.90;999.90;;;;;;;;;;4983392;28;20454;-76
2022/09/11 05:59:09;;;;;;;1999.90;999.90;;;;;;;;;;5000490;28;20829;-75
2022/09/11 06:01:37;;;;;;;1999.90;999.90;;;;;;;;;;4999790;28;20404;-75
2022/09/11 06:04:17;;;;;;;1999.90;999.90;;;;;;;;;;5014864;28;20426;-76
2022/09/11 06:06:47;;;;;;;1999.90;999.90;;;;;;;;;;5000587;28;20455;-75
2022/09/11 06:09:16;;;;;;;1999.90;999.90;;;;;;;;;;5000350;28;20404;-75
2022/09/11 06:11:44;;;;;;;1999.90;999.90;;;;;;;;;;5001260;28;20885;-75
2022/09/11 06:14:12;;;;;;;1999.90;999.90;;;;;;;;;;4978803;28;21215;-75
2022/09/11 06:16:42;;;;;;;1999.90;999.90;;;;;;;;;;4987462;28;20470;-75
2022/09/11 06:19:15;;;;;;;1999.90;999.90;;;;;;;;;;4997830;28;20412;-76
2022/09/11 06:21:44;;;;;;;1999.90;999.90;;;;;;;;;;4998434;28;20412;-76
2022/09/11 06:24:23;;;;;;;1999.90;999.90;;;;;;;;;;4979778;28;21005;-76
2022/09/11 06:26:51;;;;;;;1999.90;999.90;;;;;;;;;;4981641;28;20483;-75
2022/09/11 06:29:18;;;;;;;1999.90;999.90;;;;;;;;;;4981183;28;20443;-75
2022/09/11 06:31:50;;;;;;;1999.90;999.90;;;;;;;;;;4978111;28;20391;-75
2022/09/11 06:34:23;;;;;;;1999.90;999.90;;;;;;;;;;4982261;28;20415;-75
2022/09/11 06:36:51;;;;;;;1999.90;999.90;;;;;;;;;;4996254;28;20419;-77
2022/09/11 06:39:21;;;;;;;1999.90;999.90;;;;;;;;;;4976668;28;20399;-74
2022/09/11 06:41:52;;;;;;;1999.90;999.90;;;;;;;;;;4978738;28;20400;-75
2022/09/11 06:44:26;;;;;;;1999.90;999.90;;;;;;;;;;4979262;28;20407;-74
2022/09/11 06:46:58;;;;;;;1999.90;999.90;;;;;;;;;;4997788;28;21134;-77
2022/09/11 06:49:27;;;;;;;1999.90;999.90;;;;;;;;;;5011603;28;20408;-77
2022/09/11 06:52:27;;;;;;;1999.90;999.90;;;;;;;;;;4996381;28;20438;-75
2022/09/11 06:55:13;;;;;;;1999.90;999.90;;;;;;;;;;4999819;28;20416;-75
2022/09/11 06:57:48;;;;;;;1999.90;999.90;;;;;;;;;;4983632;28;20459;-76
2022/09/11 07:00:21;;;;;;;1999.90;999.90;;;;;;;;;;4982205;28;20401;-75
2022/09/11 07:02:51;;;;;;;1999.90;999.90;;;;;;;;;;4997439;28;20388;-75
2022/09/11 07:05:21;;;;;;;1999.90;999.90;;;;;;;;;;4997933;28;20415;-75
2022/09/11 07:07:51;;;;;;;1999.90;999.90;;;;;;;;;;5001011;28;20475;-76
2022/09/11 07:10:19;;;;;;;1999.90;999.90;;;;;;;;;;4979562;28;20411;-75
2022/09/11 07:12:52;;;;;;;1999.90;999.90;;;;;;;;;;5016318;28;20395;-74
2022/09/11 07:15:20;;;;;;;1999.90;999.90;;;;;;;;;;4971335;28;20503;-74
2022/09/11 07:17:48;;;;;;;1999.90;999.90;;;;;;;;;;4998673;28;20387;-75
2022/09/11 07:20:17;;;;;;;1999.90;999.90;;;;;;;;;;4997205;28;20419;-75
2022/09/11 07:22:46;;;;;;;1999.90;999.90;;;;;;;;;;4998039;28;22562;-75
2022/09/11 07:25:16;;;;;;;1999.90;999.90;;;;;;;;;;4982144;28;20906;-75
2022/09/11 07:27:44;;;;;;;1999.90;999.90;;;;;;;;;;5014725;28;20887;-76
2022/09/11 07:30:14;;;;;;;1999.90;999.90;;;;;;;;;;5012363;28;20481;-76
2022/09/11 07:32:44;;;;;;;1999.90;999.90;;;;;;;;;;4980491;28;20831;-76
2022/09/11 07:35:20;;;;;;;1999.90;999.90;;;;;;;;;;5013534;28;20420;-75
2022/09/11 07:37:51;;;;;;;1999.90;999.90;;;;;;;;;;5008644;28;20402;-76
2022/09/11 07:40:24;;;;;;;1999.90;999.90;;;;;;;;;;4976406;28;20418;-75
2022/09/11 07:42:52;;;;;;;1999.90;999.90;;;;;;;;;;4988422;28;20402;-76
2022/09/11 07:45:21;;;;;;;1999.90;999.90;;;;;;;;;;5007755;28;20890;-75
2022/09/11 07:47:50;;;;;;;1999.90;999.90;;;;;;;;;;4989309;28;20502;-75
2022/09/11 07:50:17;;;;;;;1999.90;999.90;;;;;;;;;;5012457;28;20427;-77
2022/09/11 07:52:45;;;;;;;1999.90;999.90;;;;;;;;;;4994905;28;20952;-74
2022/09/11 07:55:15;;;;;;;1999.90;999.90;;;;;;;;;;5004748;28;20550;-74
2022/09/11 07:57:44;;;;;;;1999.90;999.90;;;;;;;;;;4988090;28;20454;-74
2022/09/11 08:00:15;;;;;;;1999.90;999.90;;;;;;;;;;4977089;28;20890;-76
2022/09/11 08:02:48;;;;;;;1999.90;999.90;;;;;;;;;;4988943;28;20467;-74
2022/09/11 08:05:25;;;;;;;1999.90;999.90;;;;;;;;;;4988517;28;20530;-76
2022/09/11 08:07:55;;;;;;;1999.90;999.90;;;;;;;;;;5012505;28;20411;-75
2022/09/11 08:10:25;;;;;;;1999.90;999.90;;;;;;;;;;4976723;28;20526;-81
2022/09/11 08:12:55;;;;;;;1999.90;999.90;;;;;;;;;;4994976;28;20396;-78
2022/09/11 08:15:30;;;;;;;1999.90;999.90;;;;;;;;;;4983792;28;20878;-79
2022/09/11 08:17:58;;;;;;;1999.90;999.90;;;;;;;;;;5002659;28;20435;-80
2022/09/11 08:20:26;;;;;;;1999.90;999.90;;;;;;;;;;4995384;28;20403;-77
2022/09/11 08:22:54;;;;;;;1999.90;999.90;;;;;;;;;;4992012;28;20399;-76
2022/09/11 08:25:22;;;;;;;1999.90;999.90;;;;;;;;;;4982612;28;20424;-78
2022/09/11 08:27:52;;;;;;;1999.90;999.90;;;;;;;;;;5000729;28;21215;-77
2022/09/11 08:30:22;;;;;;;1999.90;999.90;;;;;;;;;;5014064;28;20404;-77
2022/09/11 08:32:50;;;;;;;1999.90;999.90;;;;;;;;;;5001250;28;20458;-78
2022/09/11 08:35:18;;;;;;;1999.90;999.90;;;;;;;;;;5002979;28;20407;-78
2022/09/11 08:37:45;;;;;;;1999.90;999.90;;;;;;;;;;4987781;28;20408;-80
2022/09/11 08:40:18;;;;;;;1999.90;999.90;;;;;;;;;;5004383;28;20402;-78
2022/09/11 08:42:46;;;;;;;1999.90;999.90;;;;;;;;;;5019298;28;20403;-77
2022/09/11 08:45:17;;;;;;;1999.90;999.90;;;;;;;;;;5021101;28;20430;-78
2022/09/11 08:47:48;;;;;;;1999.90;999.90;;;;;;;;;;5008093;28;20400;-79
2022/09/11 08:50:20;;;;;;;1999.90;999.90;;;;;;;;;;5003631;28;21374;-79
2022/09/11 08:52:49;;;;;;;1999.90;999.90;;;;;;;;;;5005689;28;20506;-80
2022/09/11 08:55:24;;;;;;;1999.90;999.90;;;;;;;;;;4988825;28;20470;-79
2022/09/11 08:57:56;;;;;;;1999.90;999.90;;;;;;;;;;5004298;28;20893;-79
2022/09/11 09:00:31;;;;;;;1999.90;999.90;;;;;;;;;;5004544;28;20435;-78
2022/09/11 09:03:09;;;;;;;1999.90;999.90;;;;;;;;;;5023650;28;20368;-79
2022/09/11 09:05:42;;;;;;;1999.90;999.90;;;;;;;;;;5001611;28;20459;-79
2022/09/11 09:08:19;;;;;;;1999.90;999.90;;;;;;;;;;5003504;28;20396;-79
2022/09/11 09:10:50;;;;;;;1999.90;999.90;;;;;;;;;;4988127;28;20407;-78
2022/09/11 09:13:24;;;;;;;1999.90;999.90;;;;;;;;;;5008381;28;20356;-78
2022/09/11 09:16:01;;;;;;;1999.90;999.90;;;;;;;;;;5008484;28;20407;-78
2022/09/11 09:18:31;;;;;;;1999.90;999.90;;;;;;;;;;5002308;28;20965;-78
2022/09/11 09:21:02;;;;;;;1999.90;999.90;;;;;;;;;;5002167;28;20375;-79
2022/09/11 09:23:37;;;;;;;1999.90;999.90;;;;;;;;;;5024761;28;20494;-78
2022/09/11 09:26:11;;;;;;;1999.90;999.90;;;;;;;;;;5026225;28;20424;-78
2022/09/11 09:28:43;;;;;;;1999.90;999.90;;;;;;;;;;4986349;28;20396;-77
2022/09/11 09:31:13;;;;;;;1999.90;999.90;;;;;;;;;;4999953;28;20524;-77
2022/09/11 09:33:44;;;;;;;1999.90;999.90;;;;;;;;;;5003104;28;20382;-79
2022/09/11 09:36:13;;;;;;;1999.90;999.90;;;;;;;;;;5005263;28;20412;-78
2022/09/11 09:38:41;;;;;;;1999.90;999.90;;;;;;;;;;4985768;28;20400;-79
2022/09/11 09:41:20;;;;;;;1999.90;999.90;;;;;;;;;;4987496;28;20530;-80
2022/09/11 09:43:53;;;;;;;1999.90;999.90;;;;;;;;;;4990157;28;20450;-78
2022/09/11 09:46:27;;;;;;;1999.90;999.90;;;;;;;;;;5024116;28;20432;-78
2022/09/11 09:48:55;;;;;;;1999.90;999.90;;;;;;;;;;4988799;28;20446;-78
2022/09/11 09:51:23;;;;;;;1999.90;999.90;;;;;;;;;;4984435;28;20422;-76
2022/09/11 09:53:53;;;;;;;1999.90;999.90;;;;;;;;;;5001001;28;20408;-77
2022/09/11 09:56:22;;;;;;;1999.90;999.90;;;;;;;;;;4982114;28;20415;-77
2022/09/11 09:58:55;;;;;;;1999.90;999.90;;;;;;;;;;5010390;28;21663;-78
2022/09/11 10:01:42;;;;;;;1999.90;999.90;;;;;;;;;;4996897;28;20419;-76
2022/09/11 10:04:14;;;;;;;1999.90;999.90;;;;;;;;;;4999352;28;21050;-77
2022/09/11 10:06:42;;;;;;;1999.90;999.90;;;;;;;;;;5001174;28;20463;-77
2022/09/11 10:09:18;;;;;;;1999.90;999.90;;;;;;;;;;5002337;28;20404;-76
2022/09/11 10:11:57;;;;;;;1999.90;999.90;;;;;;;;;;4998299;28;20416;-76
2022/09/11 10:14:27;;;;;;;1999.90;999.90;;;;;;;;;;5004364;28;20491;-76
2022/09/11 10:17:37;;;;;;;1999.90;999.90;;;;;;;;;;5019384;28;20559;-77
2022/09/11 10:20:21;;;;;;;1999.90;999.90;;;;;;;;;;5001562;28;20459;-74
2022/09/11 10:22:50;;;;;;;1999.90;999.90;;;;;;;;;;5004162;28;20494;-76
2022/09/11 10:25:19;;;;;;;1999.90;999.90;;;;;;;;;;5002717;28;20396;-76
2022/09/11 10:27:53;;;;;;;1999.90;999.90;;;;;;;;;;5002459;28;20411;-77
2022/09/11 10:30:28;;;;;;;1999.90;999.90;;;;;;;;;;5002855;28;20446;-75
2022/09/11 10:32:57;;;;;;;1999.90;999.90;;;;;;;;;;5003189;28;20412;-75
2022/09/11 10:35:32;;;;;;;1999.90;999.90;;;;;;;;;;5004577;28;20759;-79
2022/09/11 10:38:08;;;;;;;1999.90;999.90;;;;;;;;;;4987712;28;20412;-78
2022/09/11 10:40:38;;;;;;;1999.90;999.90;;;;;;;;;;5002113;28;20833;-76
2022/09/11 10:43:07;;;;;;;1999.90;999.90;;;;;;;;;;4981626;28;20910;-75
2022/09/11 10:45:34;;;;;;;1999.90;999.90;;;;;;;;;;5015070;28;20775;-75
2022/09/11 10:48:14;;;;;;;1999.90;999.90;;;;;;;;;;5000217;28;20503;-75
2022/09/11 10:50:43;;;;;;;1999.90;999.90;;;;;;;;;;4998592;28;20921;-78
2022/09/11 10:53:16;;;;;;;1999.90;999.90;;;;;;;;;;4998608;28;20535;-79
2022/09/11 10:55:48;;;;;;;1999.90;999.90;;;;;;;;;;4995542;28;20400;-77
2022/09/11 10:58:18;;;;;;;1999.90;999.90;;;;;;;;;;5011984;28;20419;-79
2022/09/11 11:00:50;;;;;;;1999.90;999.90;;;;;;;;;;5004745;28;20443;-81
2022/09/11 11:03:21;;;;;;;1999.90;999.90;;;;;;;;;;5002158;28;21077;-77
2022/09/11 11:05:58;;;;;;;1999.90;999.90;;;;;;;;;;5000090;28;20400;-77
2022/09/11 11:08:32;;;;;;;1999.90;999.90;;;;;;;;;;5013088;28;20417;-78
2022/09/11 11:11:12;;;;;;;1999.90;999.90;;;;;;;;;;5017853;28;20383;-77
2022/09/11 11:13:48;;;;;;;1999.90;999.90;;;;;;;;;;5001328;28;20399;-77
2022/09/11 11:16:20;;;;;;;1999.90;999.90;;;;;;;;;;4996879;28;20408;-76
2022/09/11 11:18:57;;;;;;;1999.90;999.90;;;;;;;;;;5000331;28;20818;-77
2022/09/11 11:21:32;;;;;;;1999.90;999.90;;;;;;;;;;5000992;28;20471;-78
2022/09/11 11:24:05;;;;;;;1999.90;999.90;;;;;;;;;;5000132;28;20442;-76
2022/09/11 11:26:41;;;;;;;1999.90;999.90;;;;;;;;;;5002067;28;20466;-78
2022/09/11 11:29:22;;;;;;;1999.90;999.90;;;;;;;;;;5005623;28;21137;-80
2022/09/11 11:32:01;;;;;;;1999.90;999.90;;;;;;;;;;4998096;28;20379;-81
2022/09/11 11:34:37;;;;;;;1999.90;999.90;;;;;;;;;;4998425;28;21242;-78
2022/09/11 11:37:11;;;;;;;1999.90;999.90;;;;;;;;;;4995470;28;20379;-79
2022/09/11 11:39:43;;;;;;;1999.90;999.90;;;;;;;;;;5000588;28;20411;-79
2022/09/11 11:42:16;;;;;;;1999.90;999.90;;;;;;;;;;5001394;28;20404;-79
2022/09/11 11:44:47;;;;;;;1999.90;999.90;;;;;;;;;;4995634;28;20407;-81
2022/09/11 11:47:16;;;;;;;1999.90;999.90;;;;;;;;;;4993576;28;20426;-79
2022/09/11 11:49:49;;;;;;;1999.90;999.90;;;;;;;;;;4996384;28;20942;-79
2022/09/11 11:52:23;;;;;;;1999.90;999.90;;;;;;;;;;4996431;28;20466;-80
2022/09/11 11:54:53;;;;;;;1999.90;999.90;;;;;;;;;;5014098;28;20497;-80
2022/09/11 11:57:23;;;;;;;1999.90;999.90;;;;;;;;;;4997216;28;20404;-78
2022/09/11 11:59:56;;;;;;;1999.90;999.90;;;;;;;;;;4997344;28;20421;-77
2022/09/11 12:02:28;;;;;;;1999.90;999.90;;;;;;;;;;4995724;28;22055;-79
2022/09/11 12:04:57;;;;;;;1999.90;999.90;;;;;;;;;;5014042;28;20810;-77
2022/09/11 12:07:27;;;;;;;1999.90;999.90;;;;;;;;;;4998494;28;20486;-79
2022/09/11 12:09:56;;;;;;;1999.90;999.90;;;;;;;;;;5001308;28;20491;-77
2022/09/11 12:12:26;;;;;;;1999.90;999.90;;;;;;;;;;5010574;28;20487;-77
2022/09/11 12:14:56;;;;;;;1999.90;999.90;;;;;;;;;;4980240;28;20427;-77
2022/09/11 12:17:26;;;;;;;1999.90;999.90;;;;;;;;;;4998357;28;21221;-73
2022/09/11 12:20:13;;;;;;;1999.90;999.90;;;;;;;;;;4990862;28;20407;-75
2022/09/11 12:22:43;;;;;;;1999.90;999.90;;;;;;;;;;4994886;28;21346;-73
2022/09/11 12:25:26;;;;;;;1999.90;999.90;;;;;;;;;;4998687;28;20463;-75
2022/09/11 12:28:09;;;;;;;1999.90;999.90;;;;;;;;;;4996935;28;20525;-74
2022/09/11 12:30:55;;;;;;;1999.90;999.90;;;;;;;;;;4993880;28;20415;-74
2022/09/11 12:33:43;;;;;;;1999.90;999.90;;;;;;;;;;4993680;28;20513;-75
2022/09/11 12:36:13;;;;;;;1999.90;999.90;;;;;;;;;;4998625;28;20415;-74
2022/09/11 12:38:44;;;;;;;1999.90;999.90;;;;;;;;;;4991327;28;20407;-76
2022/09/11 12:41:13;;;;;;;1999.90;999.90;;;;;;;;;;4989608;28;20423;-78
2022/09/11 12:43:46;;;;;;;1999.90;999.90;;;;;;;;;;4994656;28;20474;-77
2022/09/11 12:46:29;;;;;;;1999.90;999.90;;;;;;;;;;4997335;28;20458;-76
2022/09/11 12:48:57;;;;;;;1999.90;999.90;;;;;;;;;;4991814;28;20602;-77
2022/09/11 12:51:50;;;;;;;1999.90;999.90;;;;;;;;;;4998694;28;21164;-77
2022/09/11 12:54:22;;;;;;;1999.90;999.90;;;;;;;;;;4994150;28;20407;-77
2022/09/11 12:56:51;;;;;;;1999.90;999.90;;;;;;;;;;4994655;28;20404;-76
2022/09/11 12:59:23;;;;;;;1999.90;999.90;;;;;;;;;;4995686;28;20567;-76
2022/09/11 13:01:51;;;;;;;1999.90;999.90;;;;;;;;;;5000289;28;20446;-76
2022/09/11 13:04:21;;;;;;;1999.90;999.90;;;;;;;;;;4996237;28;21001;-75
2022/09/11 13:06:53;;;;;;;1999.90;999.90;;;;;;;;;;5002743;28;20859;-75
2022/09/11 13:09:25;;;;;;;1999.90;999.90;;;;;;;;;;4997452;28;20407;-75
2022/09/11 13:11:53;;;;;;;1999.90;999.90;;;;;;;;;;5012904;28;20421;-76
2022/09/11 13:14:47;;;;;;;1999.90;999.90;;;;;;;;;;4972819;28;20533;-76
2022/09/11 13:17:22;;;;;;;1999.90;999.90;;;;;;;;;;5002198;28;20241;-76
2022/09/11 13:19:50;;;;;;;1999.90;999.90;;;;;;;;;;4997161;28;20514;-75
2022/09/11 13:22:23;;;;;;;1999.90;999.90;;;;;;;;;;4996563;28;20521;-76
2022/09/11 13:25:03;;;;;;;1999.90;999.90;;;;;;;;;;4974684;28;20407;-77
2022/09/11 13:27:32;;;;;;;1999.90;999.90;;;;;;;;;;4998598;28;20400;-76
2022/09/11 13:30:00;;;;;;;1999.90;999.90;;;;;;;;;;4993158;28;20407;-77
2022/09/11 13:32:28;;;;;;;1999.90;999.90;;;;;;;;;;4996550;28;20412;-76
2022/09/11 13:35:00;;;;;;;1999.90;999.90;;;;;;;;;;4997331;28;20408;-75
2022/09/11 13:37:35;;;;;;;1999.90;999.90;;;;;;;;;;4999516;28;20392;-77
2022/09/11 13:40:05;;;;;;;1999.90;999.90;;;;;;;;;;4999672;28;20404;-75
2022/09/11 13:42:35;;;;;;;1999.90;999.90;;;;;;;;;;5011648;28;20518;-73
2022/09/11 13:45:03;;;;;;;1999.90;999.90;;;;;;;;;;4973306;28;20408;-75
2022/09/11 13:47:31;;;;;;;1999.90;999.90;;;;;;;;;;4984988;28;20415;-76
2022/09/11 13:50:00;;;;;;;1999.90;999.90;;;;;;;;;;4994628;28;20454;-77
2022/09/11 13:52:30;;;;;;;1999.90;999.90;;;;;;;;;;4990180;28;20790;-76
2022/09/11 13:54:59;;;;;;;1999.90;999.90;;;;;;;;;;4992552;28;20415;-76
2022/09/11 13:57:30;;;;;;;1999.90;999.90;;;;;;;;;;4988090;28;20428;-80
2022/09/11 13:59:59;;;;;;;1999.90;999.90;;;;;;;;;;4991325;28;20430;-76
2022/09/11 14:02:37;;;;;;;1999.90;999.90;;;;;;;;;;4995987;28;20818;-76
2022/09/11 14:05:10;;;;;;;1999.90;999.90;;;;;;;;;;4993885;28;20389;-76